createdAt,value
2023-03-23T15:58:54.582Z,25.81
2023-03-23T16:03:01.402Z,25.47
2023-03-23T16:07:02.872Z,25.35
2023-03-23T16:11:04.481Z,24.98
2023-03-23T16:15:06.425Z,25.56
2023-03-23T16:19:11.329Z,25.33
2023-03-23T16:23:12.762Z,26.08
2023-03-23T16:27:14.692Z,25.47
2023-03-23T16:31:16.070Z,25.30
2023-03-23T16:35:18.333Z,25.83
2023-03-23T16:39:19.724Z,25.13
2023-03-23T16:43:21.784Z,25.68
2023-03-23T16:47:25.248Z,25.33
2023-03-23T16:51:26.658Z,25.74
2023-03-23T16:55:29.830Z,25.43
2023-03-23T16:59:31.174Z,25.36
2023-03-23T17:03:32.877Z,25.24
2023-03-23T17:07:34.385Z,25.07
2023-03-23T17:11:35.793Z,25.82
2023-03-23T17:15:39.071Z,25.76
2023-03-23T17:19:40.957Z,25.59
2023-03-23T17:23:42.370Z,25.33
2023-03-23T17:27:43.834Z,24.79
2023-03-23T17:31:45.398Z,25.20
2023-03-23T17:35:47.690Z,25.09
2023-03-23T17:39:49.451Z,24.80
2023-03-23T17:43:53.162Z,25.08
2023-03-23T17:47:54.525Z,24.93
2023-03-23T17:51:57.461Z,24.97
2023-03-23T17:55:59.268Z,24.36
2023-03-23T18:00:00.643Z,24.62
2023-03-23T18:04:07.776Z,24.16
2023-03-23T18:08:09.841Z,24.17
2023-03-23T18:12:11.222Z,24.48
2023-03-23T18:16:12.765Z,24.81
2023-03-23T18:20:14.117Z,24.44
2023-03-23T18:24:15.642Z,24.59
2023-03-23T18:28:17.409Z,24.68
2023-03-23T18:32:19.719Z,24.54
2023-03-23T18:36:23.685Z,23.97
2023-03-23T18:40:25.072Z,24.49
2023-03-23T18:44:26.518Z,24.75
2023-03-23T18:48:27.875Z,24.13
2023-03-23T18:52:30.907Z,24.33
2023-03-23T18:56:32.415Z,24.44
2023-03-23T19:00:33.883Z,24.34
2023-03-23T19:04:35.254Z,24.12
2023-03-23T19:08:36.583Z,24.21
2023-03-23T19:12:38.444Z,23.78
2023-03-23T19:16:39.866Z,23.96
2023-03-23T19:21:09.583Z,23.63
2023-03-23T19:25:05.177Z,23.76
2023-03-23T19:33:13.297Z,23.90
2023-03-23T19:37:16.260Z,23.80
2023-03-23T19:41:19.175Z,23.81
2023-03-23T19:45:20.720Z,24.19
2023-03-23T19:49:22.102Z,23.64
2023-03-23T19:53:23.853Z,23.79
2023-03-23T19:57:25.288Z,23.90
2023-03-23T20:01:28.071Z,24.10
2023-03-23T20:05:29.590Z,23.42
2023-03-23T20:09:31.172Z,23.87
2023-03-23T20:13:36.050Z,23.98
2023-03-23T20:17:37.695Z,24.03
2023-03-23T20:21:39.813Z,24.32
2023-03-23T20:25:44.192Z,23.63
2023-03-23T20:29:45.672Z,24.11
2023-03-23T20:34:00.182Z,23.72
2023-03-23T20:38:02.604Z,24.27
2023-03-23T20:42:05.710Z,23.74
2023-03-23T20:46:08.243Z,24.15
2023-03-23T20:50:10.662Z,23.44
2023-03-23T20:54:15.510Z,23.97
2023-03-23T20:58:17.686Z,23.31
2023-03-23T21:02:20.446Z,23.91
2023-03-23T21:06:21.738Z,23.56
2023-03-23T21:10:25.614Z,23.49
2023-03-23T21:14:26.987Z,23.87
2023-03-23T21:18:28.780Z,23.78
2023-03-23T21:22:32.163Z,23.26
2023-03-23T21:26:33.808Z,23.25
2023-03-23T21:30:35.155Z,23.77
2023-03-23T21:34:39.162Z,24.23
2023-03-23T21:38:40.953Z,24.08
2023-03-23T21:42:46.524Z,23.86
2023-03-23T21:46:47.875Z,23.91
2023-03-23T21:50:49.603Z,23.90
2023-03-23T21:54:50.995Z,24.19
2023-03-23T21:58:56.677Z,23.67
2023-03-23T22:02:58.055Z,23.95
2023-03-23T22:06:59.495Z,23.83
2023-03-23T22:11:02.816Z,24.08
2023-03-23T22:15:07.487Z,23.71
2023-03-23T22:19:11.840Z,23.19
2023-03-23T22:23:21.140Z,23.99
2023-03-23T22:27:22.590Z,23.97
2023-03-23T22:31:27.608Z,23.57
2023-03-23T22:35:29.421Z,23.74
2023-03-23T22:39:31.533Z,23.63
2023-03-23T22:43:37.364Z,23.61
2023-03-23T22:47:38.839Z,23.51
2023-03-23T22:51:40.998Z,23.48
2023-03-23T22:55:47.470Z,23.54
2023-03-23T22:59:50.462Z,23.74
2023-03-23T23:03:51.932Z,23.12
2023-03-23T23:07:53.479Z,23.13
2023-03-23T23:11:54.829Z,23.49
2023-03-23T23:15:58.319Z,23.02
2023-03-23T23:20:00.933Z,23.87
2023-03-23T23:24:02.477Z,23.54
2023-03-23T23:28:05.339Z,23.41
2023-03-23T23:32:06.738Z,23.34
2023-03-23T23:36:08.932Z,23.71
2023-03-23T23:40:10.949Z,23.38
2023-03-23T23:44:12.437Z,23.55
2023-03-23T23:48:15.953Z,23.62
2023-03-23T23:52:17.722Z,23.66
2023-03-23T23:56:21.113Z,23.68
